Terminal Aerodrome Forecast
Issued by NWS Sterling, VA

Current Version | Previous Version | Graphics & Text | Print | Product List | Glossary On
Versions: 1 2 3 4 5 6 7 8 9 10 11 12 13 14 15
000
FTUS41 KLWX 281500 AAA
TAFDCA
TAF AMD
KDCA 281500Z 2815/2912 19003KT P6SM BKN070 OVC100
     FM282000 31005KT 5SM -SHRA OVC050
     FM290100 34009KT P6SM SCT025 OVC040
     FM291000 31005KT P6SM SCT030 OVC045=

USA.gov is the U.S. government's official web portal to all federal, state and local government web resources and services.